Terminal Aerodrome Forecast
Issued by NWS Cleveland, OH

Home | Current Version | Previous Version | Text Only | Print | Product List | Glossary Off
Versions: 1 2 3 4 5 6 7 8 9 10 11 12 13 14 15

000
FTUS41 KCLE 240528
TAFYNG
TAF
KYNG 240528Z 2406/2506 15007KT P6SM OVC250
     FM240800 15007KT P6SM -SHRA OVC060
     FM241000 20012KT P6SM OVC080 WS020/23045KT
     FM241600 22015G25KT P6SM BKN060
     FM242200 23015G25KT P6SM OVC250
     FM250200 23012KT P6SM OVC025=

USA.gov is the U.S. government's official web portal to all federal, state and local government web resources and services.